sensor_id;sensor_type;location;lat;lon;timestamp;P1;durP1;ratioP1;P2;durP2;ratioP2
73158;SDS011;61370;48.594;10.202;2022-08-01T06:18:17;3.42;;;1.73;;
73158;SDS011;61370;48.594;10.202;2022-08-01T06:20:50;3.47;;;1.92;;
73158;SDS011;61370;48.594;10.202;2022-08-01T06:23:21;4.88;;;2.50;;
73158;SDS011;61370;48.594;10.202;2022-08-01T06:25:52;3.88;;;2.20;;
73158;SDS011;61370;48.594;10.202;2022-08-01T06:28:21;4.35;;;2.13;;
73158;SDS011;61370;48.594;10.202;2022-08-01T06:30:49;3.30;;;1.85;;
73158;SDS011;61370;48.594;10.202;2022-08-01T06:33:16;4.18;;;1.90;;
73158;SDS011;61370;48.594;10.202;2022-08-01T06:35:43;5.00;;;2.20;;
73158;SDS011;61370;48.594;10.202;2022-08-01T06:38:09;4.50;;;2.00;;
73158;SDS011;61370;48.594;10.202;2022-08-01T06:40:36;4.22;;;2.20;;
73158;SDS011;61370;48.594;10.202;2022-08-01T06:43:02;3.97;;;1.95;;
73158;SDS011;61370;48.594;10.202;2022-08-01T06:45:29;3.22;;;1.80;;
73158;SDS011;61370;48.594;10.202;2022-08-01T06:47:56;3.60;;;1.90;;
73158;SDS011;61370;48.594;10.202;2022-08-01T06:50:22;4.47;;;2.00;;
73158;SDS011;61370;48.594;10.202;2022-08-01T06:52:49;3.20;;;1.77;;
73158;SDS011;61370;48.594;10.202;2022-08-01T06:55:15;4.80;;;2.10;;
73158;SDS011;61370;48.594;10.202;2022-08-01T06:57:49;3.55;;;1.92;;
73158;SDS011;61370;48.594;10.202;2022-08-01T07:00:18;3.88;;;1.90;;
73158;SDS011;61370;48.594;10.202;2022-08-01T07:02:51;4.22;;;1.90;;
73158;SDS011;61370;48.594;10.202;2022-08-01T07:05:20;3.30;;;1.83;;
73158;SDS011;61370;48.594;10.202;2022-08-01T07:07:47;3.25;;;1.50;;
73158;SDS011;61370;48.594;10.202;2022-08-01T07:10:14;3.88;;;1.65;;
73158;SDS011;61370;48.594;10.202;2022-08-01T07:12:40;2.92;;;1.60;;
73158;SDS011;61370;48.594;10.202;2022-08-01T07:15:08;3.20;;;1.55;;
73158;SDS011;61370;48.594;10.202;2022-08-01T07:17:38;2.70;;;1.40;;
73158;SDS011;61370;48.594;10.202;2022-08-01T07:20:07;4.85;;;1.50;;
73158;SDS011;61370;48.594;10.202;2022-08-01T07:22:34;3.05;;;1.40;;
73158;SDS011;61370;48.594;10.202;2022-08-01T07:25:02;3.97;;;1.33;;
73158;SDS011;61370;48.594;10.202;2022-08-01T07:27:30;3.28;;;1.60;;
73158;SDS011;61370;48.594;10.202;2022-08-01T07:29:56;3.30;;;1.70;;
73158;SDS011;61370;48.594;10.202;2022-08-01T07:32:22;4.78;;;1.40;;
73158;SDS011;61370;48.594;10.202;2022-08-01T07:34:49;2.53;;;1.30;;
73158;SDS011;61370;48.594;10.202;2022-08-01T07:37:16;3.58;;;1.40;;
73158;SDS011;61370;48.594;10.202;2022-08-01T07:39:42;2.75;;;1.30;;
73158;SDS011;61370;48.594;10.202;2022-08-01T07:42:09;2.15;;;1.10;;
73158;SDS011;61370;48.594;10.202;2022-08-01T07:44:36;3.97;;;1.30;;
73158;SDS011;61370;48.594;10.202;2022-08-01T07:47:03;2.50;;;1.20;;
73158;SDS011;61370;48.594;10.202;2022-08-01T07:49:30;3.20;;;1.35;;
73158;SDS011;61370;48.594;10.202;2022-08-01T07:51:56;2.45;;;1.30;;
73158;SDS011;61370;48.594;10.202;2022-08-01T07:54:24;3.63;;;1.33;;
73158;SDS011;61370;48.594;10.202;2022-08-01T07:56:51;2.92;;;1.38;;
73158;SDS011;61370;48.594;10.202;2022-08-01T07:59:17;3.38;;;1.20;;
73158;SDS011;61370;48.594;10.202;2022-08-01T08:01:50;2.35;;;1.33;;
73158;SDS011;61370;48.594;10.202;2022-08-01T08:04:17;3.60;;;1.40;;
73158;SDS011;61370;48.594;10.202;2022-08-01T08:06:45;2.97;;;1.40;;
73158;SDS011;61370;48.594;10.202;2022-08-01T08:09:13;2.78;;;1.50;;
73158;SDS011;61370;48.594;10.202;2022-08-01T08:11:44;3.58;;;1.50;;
73158;SDS011;61370;48.594;10.202;2022-08-01T08:14:11;3.22;;;1.45;;
73158;SDS011;61370;48.594;10.202;2022-08-01T08:16:38;2.80;;;1.42;;
73158;SDS011;61370;48.594;10.202;2022-08-01T08:19:08;4.18;;;1.33;;
73158;SDS011;61370;48.594;10.202;2022-08-01T08:21:35;3.63;;;1.50;;
73158;SDS011;61370;48.594;10.202;2022-08-01T08:24:02;3.33;;;1.23;;
73158;SDS011;61370;48.594;10.202;2022-08-01T08:26:47;3.38;;;1.48;;
73158;SDS011;61370;48.594;10.202;2022-08-01T08:29:14;3.78;;;1.38;;
73158;SDS011;61370;48.594;10.202;2022-08-01T08:31:41;3.65;;;1.60;;
73158;SDS011;61370;48.594;10.202;2022-08-01T08:34:07;2.97;;;1.45;;
73158;SDS011;61370;48.594;10.202;2022-08-01T08:36:34;4.15;;;1.50;;
73158;SDS011;61370;48.594;10.202;2022-08-01T08:39:00;3.40;;;1.30;;
73158;SDS011;61370;48.594;10.202;2022-08-01T08:41:31;2.85;;;1.40;;
73158;SDS011;61370;48.594;10.202;2022-08-01T08:44:00;3.50;;;1.80;;
73158;SDS011;61370;48.594;10.202;2022-08-01T08:46:27;3.58;;;1.70;;
73158;SDS011;61370;48.594;10.202;2022-08-01T08:48:55;2.78;;;1.77;;
73158;SDS011;61370;48.594;10.202;2022-08-01T08:51:23;2.97;;;1.60;;
73158;SDS011;61370;48.594;10.202;2022-08-01T08:53:54;2.65;;;1.50;;
73158;SDS011;61370;48.594;10.202;2022-08-01T08:56:23;3.05;;;1.40;;
73158;SDS011;61370;48.594;10.202;2022-08-01T08:58:50;3.10;;;1.63;;
73158;SDS011;61370;48.594;10.202;2022-08-01T09:01:17;3.30;;;1.70;;
73158;SDS011;61370;48.594;10.202;2022-08-01T09:03:44;2.92;;;1.50;;
73158;SDS011;61370;48.594;10.202;2022-08-01T09:06:11;3.05;;;1.60;;
73158;SDS011;61370;48.594;10.202;2022-08-01T09:08:37;2.38;;;1.35;;
73158;SDS011;61370;48.594;10.202;2022-08-01T09:11:04;2.67;;;1.42;;
73158;SDS011;61370;48.594;10.202;2022-08-01T09:13:30;3.05;;;1.40;;
73158;SDS011;61370;48.594;10.202;2022-08-01T09:15:57;3.28;;;1.50;;
73158;SDS011;61370;48.594;10.202;2022-08-01T09:18:25;3.03;;;1.60;;
73158;SDS011;61370;48.594;10.202;2022-08-01T09:23:51;4.65;;;1.58;;
73158;SDS011;61370;48.594;10.202;2022-08-01T09:26:30;3.00;;;1.48;;
73158;SDS011;61370;48.594;10.202;2022-08-01T09:29:03;3.20;;;1.65;;
73158;SDS011;61370;48.594;10.202;2022-08-01T09:31:42;3.83;;;1.60;;
73158;SDS011;61370;48.594;10.202;2022-08-01T09:34:10;3.00;;;1.60;;
73158;SDS011;61370;48.594;10.202;2022-08-01T09:36:47;2.63;;;1.60;;
73158;SDS011;61370;48.594;10.202;2022-08-01T09:39:19;2.60;;;1.42;;
73158;SDS011;61370;48.594;10.202;2022-08-01T09:41:46;2.85;;;1.55;;
73158;SDS011;61370;48.594;10.202;2022-08-01T09:44:14;4.07;;;1.50;;
73158;SDS011;61370;48.594;10.202;2022-08-01T09:46:53;4.80;;;1.80;;
73158;SDS011;61370;48.594;10.202;2022-08-01T09:49:26;4.30;;;1.60;;
73158;SDS011;61370;48.594;10.202;2022-08-01T09:51:54;3.58;;;1.63;;
73158;SDS011;61370;48.594;10.202;2022-08-01T09:54:31;3.90;;;2.00;;
73158;SDS011;61370;48.594;10.202;2022-08-01T09:57:15;3.15;;;1.70;;
73158;SDS011;61370;48.594;10.202;2022-08-01T09:59:44;3.72;;;1.83;;
73158;SDS011;61370;48.594;10.202;2022-08-01T10:02:13;3.35;;;1.90;;
73158;SDS011;61370;48.594;10.202;2022-08-01T10:04:52;3.30;;;1.77;;
73158;SDS011;61370;48.594;10.202;2022-08-01T10:07:18;3.30;;;1.60;;
73158;SDS011;61370;48.594;10.202;2022-08-01T10:09:46;3.88;;;1.83;;
73158;SDS011;61370;48.594;10.202;2022-08-01T10:12:13;3.78;;;1.80;;
73158;SDS011;61370;48.594;10.202;2022-08-01T10:14:45;3.63;;;1.63;;
73158;SDS011;61370;48.594;10.202;2022-08-01T10:17:13;3.53;;;1.70;;
73158;SDS011;61370;48.594;10.202;2022-08-01T10:19:41;3.60;;;1.70;;
73158;SDS011;61370;48.594;10.202;2022-08-01T10:22:09;3.45;;;1.77;;
73158;SDS011;61370;48.594;10.202;2022-08-01T10:24:37;4.88;;;1.80;;
73158;SDS011;61370;48.594;10.202;2022-08-01T10:27:06;3.28;;;1.75;;
73158;SDS011;61370;48.594;10.202;2022-08-01T10:32:36;4.18;;;1.75;;
73158;SDS011;61370;48.594;10.202;2022-08-01T10:35:03;4.15;;;1.70;;
73158;SDS011;61370;48.594;10.202;2022-08-01T10:37:31;3.10;;;1.70;;
73158;SDS011;61370;48.594;10.202;2022-08-01T10:42:26;3.67;;;1.92;;
73158;SDS011;61370;48.594;10.202;2022-08-01T10:44:54;4.15;;;2.00;;
73158;SDS011;61370;48.594;10.202;2022-08-01T10:47:23;4.38;;;2.22;;
73158;SDS011;61370;48.594;10.202;2022-08-01T10:49:56;3.55;;;1.90;;
73158;SDS011;61370;48.594;10.202;2022-08-01T10:52:34;3.55;;;1.70;;
73158;SDS011;61370;48.594;10.202;2022-08-01T10:55:04;2.80;;;1.52;;
73158;SDS011;61370;48.594;10.202;2022-08-01T10:57:45;3.72;;;1.77;;
73158;SDS011;61370;48.594;10.202;2022-08-01T11:03:00;3.92;;;1.90;;
73158;SDS011;61370;48.594;10.202;2022-08-01T11:05:42;3.13;;;1.90;;
73158;SDS011;61370;48.594;10.202;2022-08-01T11:08:21;3.88;;;1.80;;
73158;SDS011;61370;48.594;10.202;2022-08-01T11:10:59;3.78;;;1.90;;
73158;SDS011;61370;48.594;10.202;2022-08-01T11:16:42;3.70;;;1.60;;
73158;SDS011;61370;48.594;10.202;2022-08-01T11:19:11;4.20;;;1.73;;
73158;SDS011;61370;48.594;10.202;2022-08-01T11:30:23;5.05;;;2.08;;
73158;SDS011;61370;48.594;10.202;2022-08-01T11:32:57;4.85;;;2.47;;
73158;SDS011;61370;48.594;10.202;2022-08-01T11:35:26;3.90;;;1.92;;
73158;SDS011;61370;48.594;10.202;2022-08-01T11:37:54;4.30;;;2.38;;
73158;SDS011;61370;48.594;10.202;2022-08-01T11:40:24;3.55;;;2.25;;
73158;SDS011;61370;48.594;10.202;2022-08-01T11:45:53;4.03;;;2.20;;
73158;SDS011;61370;48.594;10.202;2022-08-01T11:48:22;4.57;;;2.15;;
73158;SDS011;61370;48.594;10.202;2022-08-01T11:50:53;4.95;;;2.30;;
73158;SDS011;61370;48.594;10.202;2022-08-01T11:53:21;4.55;;;2.10;;
73158;SDS011;61370;48.594;10.202;2022-08-01T11:55:49;3.97;;;2.20;;
73158;SDS011;61370;48.594;10.202;2022-08-01T11:58:20;4.90;;;2.17;;
73158;SDS011;61370;48.594;10.202;2022-08-01T12:00:51;4.10;;;2.10;;
73158;SDS011;61370;48.594;10.202;2022-08-01T12:03:26;4.15;;;2.30;;
73158;SDS011;61370;48.594;10.202;2022-08-01T12:08:27;4.38;;;2.20;;
73158;SDS011;61370;48.594;10.202;2022-08-01T12:11:06;3.67;;;2.22;;
73158;SDS011;61370;48.594;10.202;2022-08-01T12:13:42;4.72;;;2.35;;
73158;SDS011;61370;48.594;10.202;2022-08-01T12:16:09;5.57;;;2.30;;
73158;SDS011;61370;48.594;10.202;2022-08-01T12:18:40;4.35;;;2.58;;
73158;SDS011;61370;48.594;10.202;2022-08-01T12:21:08;4.03;;;2.20;;
73158;SDS011;61370;48.594;10.202;2022-08-01T12:23:34;3.17;;;1.95;;
73158;SDS011;61370;48.594;10.202;2022-08-01T12:26:01;4.32;;;2.30;;
73158;SDS011;61370;48.594;10.202;2022-08-01T12:31:04;3.60;;;2.10;;
73158;SDS011;61370;48.594;10.202;2022-08-01T12:33:30;5.32;;;2.42;;
73158;SDS011;61370;48.594;10.202;2022-08-01T12:35:57;3.90;;;2.35;;
73158;SDS011;61370;48.594;10.202;2022-08-01T12:38:24;3.70;;;1.90;;
73158;SDS011;61370;48.594;10.202;2022-08-01T12:40:52;6.10;;;2.45;;
73158;SDS011;61370;48.594;10.202;2022-08-01T12:43:20;4.80;;;2.00;;
73158;SDS011;61370;48.594;10.202;2022-08-01T12:45:49;6.53;;;2.22;;
73158;SDS011;61370;48.594;10.202;2022-08-01T12:48:42;3.67;;;2.00;;
73158;SDS011;61370;48.594;10.202;2022-08-01T12:51:08;4.35;;;2.60;;
73158;SDS011;61370;48.594;10.202;2022-08-01T12:53:35;4.57;;;2.00;;
73158;SDS011;61370;48.594;10.202;2022-08-01T12:56:02;4.85;;;2.63;;
73158;SDS011;61370;48.594;10.202;2022-08-01T12:58:34;4.07;;;2.40;;
73158;SDS011;61370;48.594;10.202;2022-08-01T13:01:24;4.20;;;2.35;;
73158;SDS011;61370;48.594;10.202;2022-08-01T13:04:01;3.90;;;2.45;;
73158;SDS011;61370;48.594;10.202;2022-08-01T13:06:30;5.32;;;2.67;;
73158;SDS011;61370;48.594;10.202;2022-08-01T13:09:06;4.00;;;2.10;;
73158;SDS011;61370;48.594;10.202;2022-08-01T13:11:34;4.00;;;2.30;;
73158;SDS011;61370;48.594;10.202;2022-08-01T13:14:01;4.22;;;2.42;;
73158;SDS011;61370;48.594;10.202;2022-08-01T13:16:28;5.38;;;2.58;;
73158;SDS011;61370;48.594;10.202;2022-08-01T13:18:54;5.07;;;2.40;;
73158;SDS011;61370;48.594;10.202;2022-08-01T13:21:26;8.68;;;2.50;;
73158;SDS011;61370;48.594;10.202;2022-08-01T13:24:01;7.55;;;2.88;;
73158;SDS011;61370;48.594;10.202;2022-08-01T13:26:45;6.55;;;2.70;;
73158;SDS011;61370;48.594;10.202;2022-08-01T13:29:15;7.10;;;2.63;;
73158;SDS011;61370;48.594;10.202;2022-08-01T13:31:42;6.65;;;2.58;;
73158;SDS011;61370;48.594;10.202;2022-08-01T13:34:10;5.72;;;2.70;;
73158;SDS011;61370;48.594;10.202;2022-08-01T13:36:37;5.97;;;2.75;;
73158;SDS011;61370;48.594;10.202;2022-08-01T13:39:06;3.80;;;2.45;;
73158;SDS011;61370;48.594;10.202;2022-08-01T13:41:51;4.78;;;2.70;;
73158;SDS011;61370;48.594;10.202;2022-08-01T13:44:19;3.97;;;2.55;;
73158;SDS011;61370;48.594;10.202;2022-08-01T13:46:48;4.13;;;2.53;;
73158;SDS011;61370;48.594;10.202;2022-08-01T13:49:16;3.75;;;2.30;;
73158;SDS011;61370;48.594;10.202;2022-08-01T13:51:42;4.32;;;2.60;;
73158;SDS011;61370;48.594;10.202;2022-08-01T13:54:09;4.85;;;2.40;;
73158;SDS011;61370;48.594;10.202;2022-08-01T13:56:35;4.18;;;2.67;;
73158;SDS011;61370;48.594;10.202;2022-08-01T13:59:02;5.97;;;2.85;;
73158;SDS011;61370;48.594;10.202;2022-08-01T14:01:29;6.85;;;2.50;;
73158;SDS011;61370;48.594;10.202;2022-08-01T14:03:55;5.38;;;2.60;;
73158;SDS011;61370;48.594;10.202;2022-08-01T14:06:21;3.92;;;2.45;;
73158;SDS011;61370;48.594;10.202;2022-08-01T14:08:48;4.57;;;2.63;;
73158;SDS011;61370;48.594;10.202;2022-08-01T14:11:16;5.57;;;2.50;;
73158;SDS011;61370;48.594;10.202;2022-08-01T14:13:43;5.18;;;2.90;;
73158;SDS011;61370;48.594;10.202;2022-08-01T14:16:09;4.25;;;2.63;;
73158;SDS011;61370;48.594;10.202;2022-08-01T14:18:36;5.90;;;2.90;;
73158;SDS011;61370;48.594;10.202;2022-08-01T14:21:02;3.80;;;2.50;;
73158;SDS011;61370;48.594;10.202;2022-08-01T14:23:29;5.50;;;2.72;;
73158;SDS011;61370;48.594;10.202;2022-08-01T14:25:55;6.70;;;3.13;;
73158;SDS011;61370;48.594;10.202;2022-08-01T14:28:22;3.47;;;2.03;;
73158;SDS011;61370;48.594;10.202;2022-08-01T14:30:50;4.10;;;2.30;;
73158;SDS011;61370;48.594;10.202;2022-08-01T14:33:16;4.75;;;2.20;;
73158;SDS011;61370;48.594;10.202;2022-08-01T14:35:43;3.50;;;2.15;;
73158;SDS011;61370;48.594;10.202;2022-08-01T14:38:10;3.72;;;2.03;;
73158;SDS011;61370;48.594;10.202;2022-08-01T14:40:36;5.60;;;2.47;;
73158;SDS011;61370;48.594;10.202;2022-08-01T14:43:03;4.13;;;2.33;;
73158;SDS011;61370;48.594;10.202;2022-08-01T14:45:29;4.03;;;2.38;;
73158;SDS011;61370;48.594;10.202;2022-08-01T14:47:56;5.60;;;2.65;;
73158;SDS011;61370;48.594;10.202;2022-08-01T14:50:22;4.18;;;2.40;;
73158;SDS011;61370;48.594;10.202;2022-08-01T14:52:50;4.35;;;2.30;;
73158;SDS011;61370;48.594;10.202;2022-08-01T14:55:16;4.38;;;2.50;;
73158;SDS011;61370;48.594;10.202;2022-08-01T14:57:42;5.35;;;2.50;;
73158;SDS011;61370;48.594;10.202;2022-08-01T15:00:09;4.72;;;2.70;;
73158;SDS011;61370;48.594;10.202;2022-08-01T15:02:39;4.47;;;2.78;;
73158;SDS011;61370;48.594;10.202;2022-08-01T15:05:06;3.80;;;2.38;;
73158;SDS011;61370;48.594;10.202;2022-08-01T15:07:33;3.67;;;2.20;;
73158;SDS011;61370;48.594;10.202;2022-08-01T15:10:00;4.32;;;2.17;;
73158;SDS011;61370;48.594;10.202;2022-08-01T15:12:27;7.55;;;2.35;;
73158;SDS011;61370;48.594;10.202;2022-08-01T15:14:53;3.80;;;2.30;;
73158;SDS011;61370;48.594;10.202;2022-08-01T15:17:20;4.00;;;2.50;;
73158;SDS011;61370;48.594;10.202;2022-08-01T15:19:49;4.15;;;2.10;;
73158;SDS011;61370;48.594;10.202;2022-08-01T15:22:21;4.38;;;2.33;;
73158;SDS011;61370;48.594;10.202;2022-08-01T15:24:48;6.00;;;2.35;;
73158;SDS011;61370;48.594;10.202;2022-08-01T15:27:15;4.13;;;2.45;;
73158;SDS011;61370;48.594;10.202;2022-08-01T15:29:41;4.38;;;2.30;;
73158;SDS011;61370;48.594;10.202;2022-08-01T15:32:08;5.50;;;2.50;;
73158;SDS011;61370;48.594;10.202;2022-08-01T15:34:35;4.88;;;2.33;;
73158;SDS011;61370;48.594;10.202;2022-08-01T15:37:03;3.85;;;2.40;;
73158;SDS011;61370;48.594;10.202;2022-08-01T15:39:30;4.03;;;2.35;;
73158;SDS011;61370;48.594;10.202;2022-08-01T15:42:01;4.30;;;2.58;;
73158;SDS011;61370;48.594;10.202;2022-08-01T15:44:29;4.95;;;2.20;;
73158;SDS011;61370;48.594;10.202;2022-08-01T15:46:55;3.42;;;2.10;;
73158;SDS011;61370;48.594;10.202;2022-08-01T15:49:22;4.65;;;2.38;;
73158;SDS011;61370;48.594;10.202;2022-08-01T15:51:50;4.60;;;2.60;;
73158;SDS011;61370;48.594;10.202;2022-08-01T15:54:17;3.75;;;2.30;;
73158;SDS011;61370;48.594;10.202;2022-08-01T15:56:44;6.28;;;2.53;;
73158;SDS011;61370;48.594;10.202;2022-08-01T15:59:10;4.40;;;2.20;;
73158;SDS011;61370;48.594;10.202;2022-08-01T16:01:37;4.03;;;2.22;;
73158;SDS011;61370;48.594;10.202;2022-08-01T16:04:04;4.22;;;2.50;;
73158;SDS011;61370;48.594;10.202;2022-08-01T16:06:30;4.20;;;2.50;;
73158;SDS011;61370;48.594;10.202;2022-08-01T16:08:57;3.58;;;2.28;;
73158;SDS011;61370;48.594;10.202;2022-08-01T16:11:24;3.65;;;2.42;;
73158;SDS011;61370;48.594;10.202;2022-08-01T16:13:53;4.72;;;2.30;;
73158;SDS011;61370;48.594;10.202;2022-08-01T16:16:19;4.72;;;2.40;;
73158;SDS011;61370;48.594;10.202;2022-08-01T16:18:46;4.10;;;2.47;;
73158;SDS011;61370;48.594;10.202;2022-08-01T16:21:13;5.13;;;2.50;;
73158;SDS011;61370;48.594;10.202;2022-08-01T16:23:40;5.22;;;2.42;;
73158;SDS011;61370;48.594;10.202;2022-08-01T16:26:07;4.18;;;2.30;;
73158;SDS011;61370;48.594;10.202;2022-08-01T16:28:35;3.80;;;2.50;;
73158;SDS011;61370;48.594;10.202;2022-08-01T16:31:02;4.07;;;2.30;;
73158;SDS011;61370;48.594;10.202;2022-08-01T16:33:29;6.85;;;2.60;;
73158;SDS011;61370;48.594;10.202;2022-08-01T16:35:55;5.95;;;2.30;;
73158;SDS011;61370;48.594;10.202;2022-08-01T16:38:22;4.90;;;2.40;;
73158;SDS011;61370;48.594;10.202;2022-08-01T16:49:07;4.68;;;2.53;;
73158;SDS011;61370;48.594;10.202;2022-08-01T16:54:57;6.38;;;2.33;;
73158;SDS011;61370;48.594;10.202;2022-08-01T16:57:28;4.03;;;2.00;;
73158;SDS011;61370;48.594;10.202;2022-08-01T17:00:12;5.63;;;1.98;;
73158;SDS011;61370;48.594;10.202;2022-08-01T17:02:41;4.28;;;2.15;;
73158;SDS011;61370;48.594;10.202;2022-08-01T17:05:08;4.00;;;2.00;;
73158;SDS011;61370;48.594;10.202;2022-08-01T17:07:35;5.53;;;2.55;;
73158;SDS011;61370;48.594;10.202;2022-08-01T17:10:02;5.30;;;2.00;;
73158;SDS011;61370;48.594;10.202;2022-08-01T17:12:31;8.38;;;2.20;;
73158;SDS011;61370;48.594;10.202;2022-08-01T17:15:01;3.50;;;1.50;;
73158;SDS011;61370;48.594;10.202;2022-08-01T17:17:28;2.83;;;1.60;;
73158;SDS011;61370;48.594;10.202;2022-08-01T17:19:54;5.68;;;1.92;;
73158;SDS011;61370;48.594;10.202;2022-08-01T17:22:21;4.25;;;1.88;;
73158;SDS011;61370;48.594;10.202;2022-08-01T17:24:47;3.47;;;1.73;;
73158;SDS011;61370;48.594;10.202;2022-08-01T17:27:16;3.60;;;1.80;;
73158;SDS011;61370;48.594;10.202;2022-08-01T17:29:42;3.42;;;1.70;;
73158;SDS011;61370;48.594;10.202;2022-08-01T17:32:09;4.45;;;2.13;;
73158;SDS011;61370;48.594;10.202;2022-08-01T17:34:37;4.35;;;2.10;;
73158;SDS011;61370;48.594;10.202;2022-08-01T17:37:05;3.10;;;1.50;;
73158;SDS011;61370;48.594;10.202;2022-08-01T17:39:33;4.80;;;2.22;;
73158;SDS011;61370;48.594;10.202;2022-08-01T17:41:59;4.95;;;2.10;;
73158;SDS011;61370;48.594;10.202;2022-08-01T17:44:26;5.43;;;2.33;;
73158;SDS011;61370;48.594;10.202;2022-08-01T17:46:52;4.45;;;2.10;;
73158;SDS011;61370;48.594;10.202;2022-08-01T17:49:19;4.78;;;2.10;;
73158;SDS011;61370;48.594;10.202;2022-08-01T17:51:47;5.03;;;1.98;;
73158;SDS011;61370;48.594;10.202;2022-08-01T17:54:14;5.55;;;1.92;;
73158;SDS011;61370;48.594;10.202;2022-08-01T17:56:40;4.15;;;1.95;;
73158;SDS011;61370;48.594;10.202;2022-08-01T17:59:09;5.25;;;2.00;;
73158;SDS011;61370;48.594;10.202;2022-08-01T18:01:35;5.03;;;2.10;;
73158;SDS011;61370;48.594;10.202;2022-08-01T18:04:02;4.05;;;1.90;;
73158;SDS011;61370;48.594;10.202;2022-08-01T18:06:30;4.05;;;2.28;;
73158;SDS011;61370;48.594;10.202;2022-08-01T18:08:57;4.30;;;2.00;;
73158;SDS011;61370;48.594;10.202;2022-08-01T18:11:23;4.63;;;2.10;;
73158;SDS011;61370;48.594;10.202;2022-08-01T18:13:50;5.30;;;1.92;;
73158;SDS011;61370;48.594;10.202;2022-08-01T18:16:17;6.15;;;2.30;;
73158;SDS011;61370;48.594;10.202;2022-08-01T18:18:43;5.97;;;1.90;;
73158;SDS011;61370;48.594;10.202;2022-08-01T18:21:10;5.05;;;2.38;;
73158;SDS011;61370;48.594;10.202;2022-08-01T18:23:37;3.92;;;2.10;;
73158;SDS011;61370;48.594;10.202;2022-08-01T18:26:04;3.80;;;2.00;;
73158;SDS011;61370;48.594;10.202;2022-08-01T18:28:36;5.18;;;2.08;;
73158;SDS011;61370;48.594;10.202;2022-08-01T18:31:07;4.88;;;2.30;;
73158;SDS011;61370;48.594;10.202;2022-08-01T18:33:34;4.53;;;2.00;;
73158;SDS011;61370;48.594;10.202;2022-08-01T18:36:01;5.07;;;2.28;;
73158;SDS011;61370;48.594;10.202;2022-08-01T18:38:28;4.05;;;1.98;;
73158;SDS011;61370;48.594;10.202;2022-08-01T18:40:55;4.88;;;2.13;;
73158;SDS011;61370;48.594;10.202;2022-08-01T18:43:21;5.80;;;2.22;;
73158;SDS011;61370;48.594;10.202;2022-08-01T18:45:48;6.78;;;2.42;;
73158;SDS011;61370;48.594;10.202;2022-08-01T18:48:14;5.30;;;2.20;;
73158;SDS011;61370;48.594;10.202;2022-08-01T18:50:40;5.10;;;2.05;;
73158;SDS011;61370;48.594;10.202;2022-08-01T18:53:07;5.38;;;2.35;;
73158;SDS011;61370;48.594;10.202;2022-08-01T18:55:34;8.15;;;2.30;;
73158;SDS011;61370;48.594;10.202;2022-08-01T18:58:00;4.65;;;2.40;;
73158;SDS011;61370;48.594;10.202;2022-08-01T19:00:27;5.20;;;2.58;;
73158;SDS011;61370;48.594;10.202;2022-08-01T19:02:53;5.28;;;2.38;;
73158;SDS011;61370;48.594;10.202;2022-08-01T19:05:20;3.92;;;2.30;;
73158;SDS011;61370;48.594;10.202;2022-08-01T19:07:46;4.25;;;2.38;;
73158;SDS011;61370;48.594;10.202;2022-08-01T19:10:13;6.22;;;2.53;;
73158;SDS011;61370;48.594;10.202;2022-08-01T19:12:39;6.85;;;2.85;;
73158;SDS011;61370;48.594;10.202;2022-08-01T19:15:07;6.18;;;2.85;;
73158;SDS011;61370;48.594;10.202;2022-08-01T19:17:34;5.47;;;2.30;;
73158;SDS011;61370;48.594;10.202;2022-08-01T19:20:01;6.22;;;3.13;;
73158;SDS011;61370;48.594;10.202;2022-08-01T19:22:27;5.90;;;2.83;;
73158;SDS011;61370;48.594;10.202;2022-08-01T19:24:54;5.65;;;3.03;;
73158;SDS011;61370;48.594;10.202;2022-08-01T19:27:20;5.55;;;3.05;;
73158;SDS011;61370;48.594;10.202;2022-08-01T19:29:51;5.65;;;2.83;;
73158;SDS011;61370;48.594;10.202;2022-08-01T19:32:22;6.13;;;3.03;;
73158;SDS011;61370;48.594;10.202;2022-08-01T19:35:04;6.70;;;2.85;;
73158;SDS011;61370;48.594;10.202;2022-08-01T19:37:32;6.50;;;2.85;;
73158;SDS011;61370;48.594;10.202;2022-08-01T19:39:59;5.97;;;2.45;;
73158;SDS011;61370;48.594;10.202;2022-08-01T19:42:26;5.45;;;2.30;;
73158;SDS011;61370;48.594;10.202;2022-08-01T19:44:54;6.68;;;2.70;;
73158;SDS011;61370;48.594;10.202;2022-08-01T19:47:21;5.70;;;2.50;;
73158;SDS011;61370;48.594;10.202;2022-08-01T19:49:47;6.00;;;2.95;;
73158;SDS011;61370;48.594;10.202;2022-08-01T19:52:14;5.65;;;2.55;;
73158;SDS011;61370;48.594;10.202;2022-08-01T19:54:43;5.10;;;2.38;;
73158;SDS011;61370;48.594;10.202;2022-08-01T19:57:11;4.80;;;2.50;;
73158;SDS011;61370;48.594;10.202;2022-08-01T19:59:39;4.15;;;2.55;;
73158;SDS011;61370;48.594;10.202;2022-08-01T20:02:07;5.43;;;2.47;;
73158;SDS011;61370;48.594;10.202;2022-08-01T20:04:33;4.22;;;2.38;;
73158;SDS011;61370;48.594;10.202;2022-08-01T20:07:00;5.60;;;2.63;;
73158;SDS011;61370;48.594;10.202;2022-08-01T20:09:28;5.55;;;2.60;;
73158;SDS011;61370;48.594;10.202;2022-08-01T20:11:56;4.57;;;2.67;;
73158;SDS011;61370;48.594;10.202;2022-08-01T20:14:23;4.97;;;2.45;;
73158;SDS011;61370;48.594;10.202;2022-08-01T20:16:51;4.32;;;2.40;;
73158;SDS011;61370;48.594;10.202;2022-08-01T20:19:19;5.40;;;2.58;;
73158;SDS011;61370;48.594;10.202;2022-08-01T20:21:48;5.55;;;2.70;;
73158;SDS011;61370;48.594;10.202;2022-08-01T20:24:27;4.72;;;2.60;;
73158;SDS011;61370;48.594;10.202;2022-08-01T20:26:55;4.60;;;2.40;;
73158;SDS011;61370;48.594;10.202;2022-08-01T20:29:23;5.53;;;2.17;;
73158;SDS011;61370;48.594;10.202;2022-08-01T20:31:50;4.68;;;2.20;;
73158;SDS011;61370;48.594;10.202;2022-08-01T20:34:21;4.35;;;2.10;;
73158;SDS011;61370;48.594;10.202;2022-08-01T20:36:49;4.47;;;2.30;;
73158;SDS011;61370;48.594;10.202;2022-08-01T20:39:18;4.05;;;2.50;;
73158;SDS011;61370;48.594;10.202;2022-08-01T20:41:47;4.78;;;2.70;;
73158;SDS011;61370;48.594;10.202;2022-08-01T20:44:14;4.20;;;2.15;;
73158;SDS011;61370;48.594;10.202;2022-08-01T20:46:41;9.40;;;3.58;;
73158;SDS011;61370;48.594;10.202;2022-08-01T20:49:07;5.32;;;2.63;;
73158;SDS011;61370;48.594;10.202;2022-08-01T20:51:37;7.63;;;3.10;;
73158;SDS011;61370;48.594;10.202;2022-08-01T20:54:04;6.38;;;3.13;;
73158;SDS011;61370;48.594;10.202;2022-08-01T21:02:02;4.65;;;2.17;;
73158;SDS011;61370;48.594;10.202;2022-08-01T21:07:32;3.90;;;1.70;;
73158;SDS011;61370;48.594;10.202;2022-08-01T21:10:11;3.47;;;1.80;;
73158;SDS011;61370;48.594;10.202;2022-08-01T21:12:47;4.18;;;1.90;;
73158;SDS011;61370;48.594;10.202;2022-08-01T21:16:00;3.55;;;1.55;;
73158;SDS011;61370;48.594;10.202;2022-08-01T21:18:33;4.20;;;1.67;;
73158;SDS011;61370;48.594;10.202;2022-08-01T21:21:03;4.07;;;1.50;;
73158;SDS011;61370;48.594;10.202;2022-08-01T21:26:28;2.70;;;1.40;;
73158;SDS011;61370;48.594;10.202;2022-08-01T21:28:57;4.70;;;1.77;;
73158;SDS011;61370;48.594;10.202;2022-08-01T21:31:29;3.85;;;1.48;;
73158;SDS011;61370;48.594;10.202;2022-08-01T21:33:58;4.95;;;1.50;;
73158;SDS011;61370;48.594;10.202;2022-08-01T21:36:25;3.67;;;1.50;;
73158;SDS011;61370;48.594;10.202;2022-08-01T21:38:53;3.88;;;1.60;;
73158;SDS011;61370;48.594;10.202;2022-08-01T21:41:23;4.57;;;1.40;;
73158;SDS011;61370;48.594;10.202;2022-08-01T21:43:51;4.40;;;1.50;;
73158;SDS011;61370;48.594;10.202;2022-08-01T21:46:18;2.75;;;1.27;;
73158;SDS011;61370;48.594;10.202;2022-08-01T21:48:46;3.15;;;1.35;;
73158;SDS011;61370;48.594;10.202;2022-08-01T22:02:03;4.20;;;1.70;;
73158;SDS011;61370;48.594;10.202;2022-08-01T22:04:40;5.45;;;1.80;;